createdAt,value
2016-11-05T00:00:27.293Z,-1.29
2016-11-05T00:01:36.015Z,-1.25
2016-11-05T00:02:44.704Z,-1.3
2016-11-05T00:03:53.389Z,-1.21
2016-11-05T00:05:02.083Z,-1.33
2016-11-05T00:06:10.769Z,-1.21
2016-11-05T00:07:19.458Z,-1.25
2016-11-05T00:08:28.145Z,-1.27
2016-11-05T00:09:36.832Z,-1.19
2016-11-05T00:10:45.517Z,-1.21
2016-11-05T00:11:54.208Z,-1.14
2016-11-05T00:13:02.902Z,-1.14
2016-11-05T00:14:11.593Z,-1.14
2016-11-05T00:15:20.285Z,-1.14
2016-11-05T00:16:28.968Z,-1.18
2016-11-05T00:17:37.695Z,-1.07
2016-11-05T00:18:46.380Z,-1.18
2016-11-05T00:19:55.067Z,-1.19
2016-11-05T00:21:03.758Z,-1.12
2016-11-05T00:22:12.452Z,-1.19
2016-11-05T00:23:21.177Z,-1.12
2016-11-05T00:24:29.869Z,-1.11
2016-11-05T00:25:38.587Z,-1.12
2016-11-05T00:26:47.274Z,-1.11
2016-11-05T00:27:55.963Z,-0.99
2016-11-05T00:29:04.962Z,-1
2016-11-05T00:30:13.688Z,-0.97
2016-11-05T00:31:22.377Z,-0.96
2016-11-05T00:32:31.065Z,-0.96
2016-11-05T00:33:39.752Z,-0.99
2016-11-05T00:34:48.439Z,-1.01
2016-11-05T00:35:57.129Z,-1.01
2016-11-05T00:37:05.813Z,-1.04
2016-11-05T00:38:14.549Z,-1.06
2016-11-05T00:39:23.276Z,-1.07
2016-11-05T00:40:32.276Z,-1.03
2016-11-05T00:41:40.967Z,-1.06
2016-11-05T00:42:49.653Z,-1.03
2016-11-05T00:43:58.339Z,-0.97
2016-11-05T00:45:07.036Z,-1
2016-11-05T00:46:15.725Z,-0.97
2016-11-05T00:47:24.414Z,-0.97
2016-11-05T00:48:33.103Z,-1.01
2016-11-05T00:49:41.793Z,-0.94
2016-11-05T00:50:50.480Z,-1.06
2016-11-05T00:51:59.172Z,-0.99
2016-11-05T00:53:07.894Z,-1
2016-11-05T00:54:16.609Z,-0.97
2016-11-05T00:55:25.296Z,-0.94
2016-11-05T00:56:33.985Z,-0.94
2016-11-05T00:57:42.669Z,-1
2016-11-05T00:58:51.362Z,-0.91
2016-11-05T01:00:00.362Z,-1.01
2016-11-05T01:01:09.056Z,-1.04
2016-11-05T01:02:17.741Z,-1.04
2016-11-05T01:03:26.473Z,-1.01
2016-11-05T01:04:35.193Z,-0.96
2016-11-05T01:05:43.922Z,-1
2016-11-05T01:06:52.614Z,-0.94
2016-11-05T01:08:01.300Z,-0.94
2016-11-05T01:09:09.989Z,-0.97
2016-11-05T01:10:18.715Z,-1.01
2016-11-05T01:11:27.410Z,-1.06
2016-11-05T01:12:36.104Z,-1.06
2016-11-05T01:13:44.800Z,-1.09
2016-11-05T01:14:53.487Z,-1.12
2016-11-05T01:16:02.201Z,-1.12
2016-11-05T01:17:10.893Z,-1
2016-11-05T01:18:19.591Z,-1.01
2016-11-05T01:19:28.280Z,-0.99
2016-11-05T01:20:36.965Z,-0.97
2016-11-05T01:21:45.652Z,-0.94
2016-11-05T01:22:54.348Z,-0.94
2016-11-05T01:24:03.044Z,-0.97
2016-11-05T01:25:11.729Z,-0.89
2016-11-05T01:26:20.455Z,-0.99
2016-11-05T01:27:29.154Z,-0.99
2016-11-05T01:28:37.842Z,-0.84
2016-11-05T01:29:46.529Z,-0.97
2016-11-05T01:30:55.218Z,-0.97
2016-11-05T01:32:03.917Z,-0.97
2016-11-05T01:33:12.620Z,-0.97
2016-11-05T01:34:21.304Z,-1.04
2016-11-05T01:35:29.996Z,-1.07
2016-11-05T01:36:38.682Z,-1.06
2016-11-05T01:37:47.367Z,-1.07
2016-11-05T01:38:56.366Z,-1.07
2016-11-05T01:40:05.057Z,-1.03
2016-11-05T01:41:13.755Z,-1.04
2016-11-05T01:42:22.444Z,-1.06
2016-11-05T01:43:31.140Z,-1.04
2016-11-05T01:44:39.824Z,-1.07
2016-11-05T01:45:48.516Z,-1.06
2016-11-05T01:46:57.205Z,-1.03
2016-11-05T01:48:05.890Z,-1.06
2016-11-05T01:49:14.577Z,-1.06
2016-11-05T01:50:23.291Z,-1.04
2016-11-05T01:51:31.981Z,-1.07
2016-11-05T01:52:40.767Z,-1.04
2016-11-05T01:53:49.778Z,-1.09
2016-11-05T01:54:58.466Z,-0.99
2016-11-05T01:56:07.191Z,-1.03
2016-11-05T01:57:15.879Z,-1.03
2016-11-05T01:58:24.571Z,-1.03
2016-11-05T01:59:33.266Z,-1.03
2016-11-05T02:00:41.947Z,-0.99
2016-11-05T02:01:50.640Z,-0.96
2016-11-05T02:02:59.326Z,-0.96
2016-11-05T02:04:08.012Z,-1.03
2016-11-05T02:05:16.704Z,-1.04
2016-11-05T02:06:25.391Z,-1.04
2016-11-05T02:07:34.078Z,-1.01
2016-11-05T02:08:42.769Z,-1.03
2016-11-05T02:09:51.458Z,-0.93
2016-11-05T02:11:00.143Z,-0.93
2016-11-05T02:12:08.831Z,-0.99
2016-11-05T02:13:17.555Z,-0.99
2016-11-05T02:14:26.273Z,-0.97
2016-11-05T02:15:34.973Z,-0.96
2016-11-05T02:16:43.659Z,-0.97
2016-11-05T02:17:52.345Z,-0.91
2016-11-05T02:19:01.036Z,-1.01
2016-11-05T02:20:09.752Z,-0.93
2016-11-05T02:21:18.440Z,-0.97
2016-11-05T02:22:27.135Z,-0.96
2016-11-05T02:23:35.821Z,-0.87
2016-11-05T02:24:44.513Z,-0.89
2016-11-05T02:25:53.211Z,-0.91
2016-11-05T02:27:01.903Z,-0.87
2016-11-05T02:28:10.599Z,-0.78
2016-11-05T02:29:19.290Z,-0.84
2016-11-05T02:30:27.978Z,-0.77
2016-11-05T02:31:36.658Z,-0.84
2016-11-05T02:32:45.346Z,-0.8
2016-11-05T02:33:54.031Z,-0.84
2016-11-05T02:35:02.718Z,-0.77
2016-11-05T02:36:11.401Z,-0.77
2016-11-05T02:37:20.084Z,-0.8
2016-11-05T02:38:28.772Z,-0.77
2016-11-05T02:39:37.454Z,-0.84
2016-11-05T02:40:46.144Z,-0.87
2016-11-05T02:41:54.835Z,-0.96
2016-11-05T02:43:03.547Z,-0.96
2016-11-05T02:44:12.231Z,-0.94
2016-11-05T02:45:21.229Z,-1
2016-11-05T02:46:29.925Z,-0.97
2016-11-05T02:47:38.612Z,-1
2016-11-05T02:48:47.337Z,-0.96
2016-11-05T02:49:56.033Z,-0.97
2016-11-05T02:51:04.717Z,-0.94
2016-11-05T02:52:13.408Z,-0.97
2016-11-05T02:53:22.100Z,-0.96
2016-11-05T02:54:30.827Z,-0.97
2016-11-05T02:55:39.518Z,-1
2016-11-05T02:56:48.203Z,-1.06
2016-11-05T02:57:56.900Z,-1.01
2016-11-05T02:59:05.586Z,-1.01
2016-11-05T03:00:14.277Z,-1.04
2016-11-05T03:01:22.999Z,-1.06
2016-11-05T03:02:31.687Z,-1.12
2016-11-05T03:03:40.379Z,-0.97
2016-11-05T03:04:49.079Z,-1.07
2016-11-05T03:05:57.764Z,-0.96
2016-11-05T03:07:06.454Z,-0.99
2016-11-05T03:08:15.146Z,-0.97
2016-11-05T03:09:23.832Z,-0.97
2016-11-05T03:10:32.521Z,-1.03
2016-11-05T03:11:41.207Z,-0.84
2016-11-05T03:12:49.900Z,-1
2016-11-05T03:13:58.621Z,-0.96
2016-11-05T03:15:07.308Z,-1
2016-11-05T03:16:16.006Z,-0.97
2016-11-05T03:17:24.722Z,-0.89
2016-11-05T03:18:33.404Z,-0.89
2016-11-05T03:19:42.122Z,-0.93
2016-11-05T03:20:50.807Z,-0.93
2016-11-05T03:21:59.496Z,-0.89
2016-11-05T03:23:08.218Z,-0.94
2016-11-05T03:24:16.909Z,-1
2016-11-05T03:25:25.599Z,-0.96
2016-11-05T03:26:34.294Z,-0.94
2016-11-05T03:27:42.985Z,-0.97
2016-11-05T03:28:51.670Z,-0.94
2016-11-05T03:30:00.364Z,-0.97
2016-11-05T03:31:09.059Z,-0.96
2016-11-05T03:32:17.748Z,-1
2016-11-05T03:33:26.433Z,-0.93
2016-11-05T03:34:35.123Z,-1
2016-11-05T03:35:43.808Z,-0.97
2016-11-05T03:36:52.501Z,-0.93
2016-11-05T03:38:01.192Z,-1
2016-11-05T03:39:09.922Z,-0.99
2016-11-05T03:40:18.655Z,-0.96
2016-11-05T03:41:27.341Z,-0.85
2016-11-05T03:42:36.030Z,-0.85
2016-11-05T03:43:44.752Z,-0.82
2016-11-05T03:44:53.443Z,-0.85
2016-11-05T03:46:02.127Z,-0.94
2016-11-05T03:47:10.816Z,-0.81
2016-11-05T03:48:19.506Z,-0.77
2016-11-05T03:49:28.198Z,-0.91
2016-11-05T03:50:36.922Z,-0.85
2016-11-05T03:51:45.614Z,-0.78
2016-11-05T03:52:54.300Z,-0.8
2016-11-05T03:54:02.985Z,-0.77
2016-11-05T03:55:11.672Z,-0.7
2016-11-05T03:56:20.354Z,-0.7
2016-11-05T03:57:29.038Z,-0.78
2016-11-05T03:58:37.725Z,-0.75
2016-11-05T03:59:46.410Z,-0.75
2016-11-05T04:00:55.099Z,-0.74
2016-11-05T04:02:03.789Z,-0.75
2016-11-05T04:03:12.480Z,-0.78
2016-11-05T04:04:21.166Z,-0.7
2016-11-05T04:05:29.854Z,-0.75
2016-11-05T04:06:38.540Z,-0.77
2016-11-05T04:07:47.233Z,-0.74
2016-11-05T04:08:55.922Z,-0.75
2016-11-05T04:10:04.607Z,-0.66
2016-11-05T04:11:13.300Z,-0.67
2016-11-05T04:12:21.987Z,-0.8
2016-11-05T04:13:30.676Z,-0.82
2016-11-05T04:14:39.362Z,-0.8
2016-11-05T04:15:48.111Z,-0.82
2016-11-05T04:16:56.801Z,-0.82
2016-11-05T04:18:05.800Z,-0.75
2016-11-05T04:19:14.490Z,-0.75
2016-11-05T04:20:23.180Z,-0.77
2016-11-05T04:21:31.872Z,-0.78
2016-11-05T04:22:40.558Z,-0.77
2016-11-05T04:23:49.247Z,-0.75
2016-11-05T04:24:57.934Z,-0.72
2016-11-05T04:26:06.630Z,-0.77
2016-11-05T04:27:15.317Z,-0.78
2016-11-05T04:28:24.006Z,-0.74
2016-11-05T04:29:32.692Z,-0.77
2016-11-05T04:30:41.377Z,-0.78
2016-11-05T04:31:50.065Z,-0.72
2016-11-05T04:32:58.753Z,-0.77
2016-11-05T04:34:07.756Z,-0.74
2016-11-05T04:35:16.452Z,-0.7
2016-11-05T04:36:25.142Z,-0.7
2016-11-05T04:37:33.835Z,-0.75
2016-11-05T04:38:42.567Z,-0.77
2016-11-05T04:39:51.260Z,-0.67
2016-11-05T04:40:59.947Z,-0.7
2016-11-05T04:42:08.635Z,-0.72
2016-11-05T04:43:17.323Z,-0.66
2016-11-05T04:44:26.009Z,-0.56
2016-11-05T04:45:34.705Z,-0.7
2016-11-05T04:46:43.427Z,-0.64
2016-11-05T04:47:52.118Z,-0.69
2016-11-05T04:49:00.808Z,-0.67
2016-11-05T04:50:09.497Z,-0.77
2016-11-05T04:51:18.189Z,-0.64
2016-11-05T04:52:26.873Z,-0.75
2016-11-05T04:53:35.603Z,-0.77
2016-11-05T04:54:44.295Z,-0.63
2016-11-05T04:55:52.986Z,-0.56
2016-11-05T04:57:01.673Z,-0.62
2016-11-05T04:58:10.365Z,-0.63
2016-11-05T04:59:19.060Z,-0.6
2016-11-05T05:00:27.781Z,-0.53
2016-11-05T05:01:36.500Z,-0.57
2016-11-05T05:02:45.224Z,-0.6
2016-11-05T05:03:53.912Z,-0.63
2016-11-05T05:05:02.617Z,-0.56
2016-11-05T05:06:11.303Z,-0.56
2016-11-05T05:07:20.019Z,-0.59
2016-11-05T05:08:28.706Z,-0.59
2016-11-05T05:09:37.392Z,-0.62
2016-11-05T05:10:46.416Z,-0.62
2016-11-05T05:11:55.105Z,-0.63
2016-11-05T05:13:03.793Z,-0.54
2016-11-05T05:14:12.481Z,-0.66
2016-11-05T05:15:21.166Z,-0.6
2016-11-05T05:16:29.858Z,-0.59
2016-11-05T05:17:38.546Z,-0.66
2016-11-05T05:18:47.234Z,-0.63
2016-11-05T05:19:55.916Z,-0.62
2016-11-05T05:21:04.920Z,-0.56
2016-11-05T05:22:13.611Z,-0.57
2016-11-05T05:23:22.296Z,-0.63
2016-11-05T05:24:31.017Z,-0.66
2016-11-05T05:25:39.705Z,-0.57
2016-11-05T05:26:48.401Z,-0.6
2016-11-05T05:27:57.087Z,-0.63
2016-11-05T05:29:05.777Z,-0.51
2016-11-05T05:30:14.469Z,-0.56
2016-11-05T05:31:23.160Z,-0.59
2016-11-05T05:32:31.857Z,-0.62
2016-11-05T05:33:40.546Z,-0.56
2016-11-05T05:34:49.233Z,-0.48
2016-11-05T05:35:57.925Z,-0.59
2016-11-05T05:37:06.609Z,-0.54
2016-11-05T05:38:15.300Z,-0.56
2016-11-05T05:39:23.989Z,-0.54
2016-11-05T05:40:32.681Z,-0.53
2016-11-05T05:41:41.420Z,-0.51
2016-11-05T05:42:50.114Z,-0.54
2016-11-05T05:43:58.840Z,-0.48
2016-11-05T05:45:07.534Z,-0.42
2016-11-05T05:46:16.222Z,-0.46
2016-11-05T05:47:24.913Z,-0.48
2016-11-05T05:48:33.607Z,-0.45
2016-11-05T05:49:42.293Z,-0.41
2016-11-05T05:50:51.013Z,-0.38
2016-11-05T05:51:59.705Z,-0.36
2016-11-05T05:53:08.392Z,-0.38
2016-11-05T05:54:17.114Z,-0.45
2016-11-05T05:55:25.800Z,-0.36
2016-11-05T05:56:34.488Z,-0.41
2016-11-05T05:57:43.176Z,-0.38
2016-11-05T05:58:51.858Z,-0.41
2016-11-05T06:00:00.549Z,-0.39
2016-11-05T06:01:09.560Z,-0.41
2016-11-05T06:02:18.248Z,-0.36
2016-11-05T06:03:26.937Z,-0.38
2016-11-05T06:04:35.628Z,-0.38
2016-11-05T06:05:44.636Z,-0.26
2016-11-05T06:06:53.325Z,-0.3
2016-11-05T06:08:02.016Z,-0.3
2016-11-05T06:09:10.737Z,-0.28
2016-11-05T06:10:19.432Z,-0.18
2016-11-05T06:11:28.114Z,-0.18
2016-11-05T06:12:36.841Z,-0.21
2016-11-05T06:13:45.532Z,-0.2
2016-11-05T06:14:54.213Z,-0.2
2016-11-05T06:16:02.903Z,-0.18
2016-11-05T06:17:11.590Z,-0.18
2016-11-05T06:18:20.278Z,-0.21
2016-11-05T06:19:28.968Z,-0.1
2016-11-05T06:20:37.665Z,-0.15
2016-11-05T06:21:46.347Z,-0.1
2016-11-05T06:22:55.039Z,-0.09
2016-11-05T06:24:03.725Z,-0.13
2016-11-05T06:25:12.412Z,-0.09
2016-11-05T06:26:21.097Z,-0.1
2016-11-05T06:27:29.784Z,-0.09
2016-11-05T06:28:38.481Z,-0.15
2016-11-05T06:29:47.164Z,-0.15
2016-11-05T06:30:55.854Z,-0.17
2016-11-05T06:32:04.544Z,-0.2
2016-11-05T06:33:13.231Z,-0.21
2016-11-05T06:34:22.238Z,-0.15
2016-11-05T06:35:30.922Z,-0.21
2016-11-05T06:36:39.609Z,-0.17
2016-11-05T06:37:48.296Z,-0.21
2016-11-05T06:38:56.987Z,-0.2
2016-11-05T06:40:05.676Z,-0.21
2016-11-05T06:41:14.362Z,-0.15
2016-11-05T06:42:23.050Z,-0.18
2016-11-05T06:43:31.742Z,-0.2
2016-11-05T06:44:40.473Z,-0.2
2016-11-05T06:45:49.163Z,-0.17
2016-11-05T06:46:57.898Z,-0.23
2016-11-05T06:48:06.587Z,-0.23
2016-11-05T06:49:15.285Z,-0.31
2016-11-05T06:50:23.971Z,-0.31
2016-11-05T06:51:32.659Z,-0.31
2016-11-05T06:52:41.346Z,-0.31
2016-11-05T06:53:50.040Z,-0.31
2016-11-05T06:54:58.727Z,-0.27
2016-11-05T06:56:07.414Z,-0.27
2016-11-05T06:57:16.106Z,-0.33
2016-11-05T06:58:24.794Z,-0.26
2016-11-05T06:59:33.516Z,-0.23
2016-11-05T07:00:42.207Z,-0.2
2016-11-05T07:01:50.898Z,-0.28
2016-11-05T07:02:59.588Z,-0.17
2016-11-05T07:04:08.588Z,-0.23
2016-11-05T07:05:17.281Z,-0.23
2016-11-05T07:06:25.977Z,-0.18
2016-11-05T07:07:34.674Z,-0.23
2016-11-05T07:08:43.360Z,-0.24
2016-11-05T07:09:52.053Z,-0.18
2016-11-05T07:11:00.739Z,-0.24
2016-11-05T07:12:09.429Z,-0.2
2016-11-05T07:13:18.115Z,-0.18
2016-11-05T07:14:26.804Z,-0.23
2016-11-05T07:15:35.525Z,-0.15
2016-11-05T07:16:44.212Z,-0.07
2016-11-05T07:17:52.900Z,-0.06
2016-11-05T07:19:01.591Z,-0.09
2016-11-05T07:20:10.278Z,-0.05
2016-11-05T07:21:18.969Z,-0.07
2016-11-05T07:22:27.667Z,-0.06
2016-11-05T07:23:36.356Z,-0.09
2016-11-05T07:24:45.042Z,0.09
2016-11-05T07:25:53.732Z,0.02
2016-11-05T07:27:02.456Z,0.05
2016-11-05T07:28:11.146Z,0.08
2016-11-05T07:29:19.834Z,0.05
2016-11-05T07:30:28.523Z,-0.06
2016-11-05T07:31:37.247Z,0.06
2016-11-05T07:32:45.933Z,0.02
2016-11-05T07:33:54.617Z,-0.05
2016-11-05T07:35:03.303Z,-0.02
2016-11-05T07:36:12.019Z,-0.02
2016-11-05T07:37:20.707Z,-0.03
2016-11-05T07:38:29.399Z,-0.03
2016-11-05T07:39:38.131Z,0.02
2016-11-05T07:40:46.819Z,0.09
2016-11-05T07:41:55.523Z,0.05
2016-11-05T07:43:04.218Z,0
2016-11-05T07:44:12.909Z,0.05
2016-11-05T07:45:21.600Z,-0.02
2016-11-05T07:46:30.625Z,0.09
2016-11-05T07:47:39.313Z,0.19
2016-11-05T07:48:48.033Z,0.15
2016-11-05T07:49:56.721Z,0.15
2016-11-05T07:51:05.410Z,0.19
2016-11-05T07:52:14.101Z,0.26
2016-11-05T07:53:22.797Z,0.26
2016-11-05T07:54:31.487Z,0.36
2016-11-05T07:55:40.175Z,0.29
2016-11-05T07:56:48.895Z,0.36
2016-11-05T07:57:57.584Z,0.34
2016-11-05T07:59:06.274Z,0.3
2016-11-05T08:00:14.963Z,0.44
2016-11-05T08:01:23.649Z,0.39
2016-11-05T08:02:32.334Z,0.34
2016-11-05T08:03:41.021Z,0.33
2016-11-05T08:04:50.029Z,0.29
2016-11-05T08:05:58.715Z,0.29
2016-11-05T08:07:07.410Z,0.33
2016-11-05T08:08:16.103Z,0.39
2016-11-05T08:09:24.789Z,0.4
2016-11-05T08:10:33.479Z,0.4
2016-11-05T08:11:42.168Z,0.39
2016-11-05T08:12:50.855Z,0.34
2016-11-05T08:13:59.541Z,0.36
2016-11-05T08:15:08.227Z,0.34
2016-11-05T08:16:16.915Z,0.34
2016-11-05T08:17:25.598Z,0.36
2016-11-05T08:18:34.289Z,0.4
2016-11-05T08:19:42.975Z,0.42
2016-11-05T08:20:51.662Z,0.47
2016-11-05T08:22:00.350Z,0.4
2016-11-05T08:23:09.038Z,0.45
2016-11-05T08:24:17.726Z,0.52
2016-11-05T08:25:26.413Z,0.48
2016-11-05T08:26:35.129Z,0.55
2016-11-05T08:27:43.860Z,0.49
2016-11-05T08:28:52.549Z,0.49
2016-11-05T08:30:01.238Z,0.49
2016-11-05T08:31:09.960Z,0.51
2016-11-05T08:32:18.647Z,0.58
2016-11-05T08:33:27.353Z,0.49
2016-11-05T08:34:36.041Z,0.47
2016-11-05T08:35:44.768Z,0.64
2016-11-05T08:36:53.457Z,0.56
2016-11-05T08:38:02.144Z,0.67
2016-11-05T08:39:10.841Z,0.71
2016-11-05T08:40:19.530Z,0.76
2016-11-05T08:41:28.217Z,0.64
2016-11-05T08:42:36.905Z,0.78
2016-11-05T08:43:45.603Z,0.85
2016-11-05T08:44:54.294Z,0.85
2016-11-05T08:46:02.992Z,0.85
2016-11-05T08:47:11.692Z,0.81
2016-11-05T08:48:20.386Z,0.78
2016-11-05T08:49:29.074Z,0.82
2016-11-05T08:50:37.769Z,0.81
2016-11-05T08:51:46.488Z,0.81
2016-11-05T08:52:55.174Z,0.96
2016-11-05T08:54:03.869Z,0.88
2016-11-05T08:55:12.601Z,0.94
2016-11-05T08:56:21.291Z,0.89
2016-11-05T08:57:29.984Z,0.95
2016-11-05T08:58:38.706Z,0.88
2016-11-05T08:59:47.393Z,0.92
2016-11-05T09:00:56.088Z,0.99
2016-11-05T09:02:04.775Z,0.92
2016-11-05T09:03:13.463Z,0.99
2016-11-05T09:04:22.157Z,0.99
2016-11-05T09:05:30.847Z,1.09
2016-11-05T09:06:39.541Z,1.1
2016-11-05T09:07:48.232Z,1.09
2016-11-05T09:08:56.928Z,1.03
2016-11-05T09:10:05.616Z,1.03
2016-11-05T09:11:14.315Z,1.13
2016-11-05T09:12:23.008Z,1.14
2016-11-05T09:13:31.696Z,1.14
2016-11-05T09:14:40.387Z,1.18
2016-11-05T09:15:49.077Z,1.03
2016-11-05T09:16:57.764Z,1.07
2016-11-05T09:18:06.453Z,1.12
2016-11-05T09:19:15.146Z,1.12
2016-11-05T09:20:23.837Z,1.12
2016-11-05T09:21:32.565Z,1.06
2016-11-05T09:22:41.286Z,1
2016-11-05T09:23:49.978Z,1.03
2016-11-05T09:24:58.676Z,1.02
2016-11-05T09:26:07.371Z,0.99
2016-11-05T09:27:16.063Z,0.94
2016-11-05T09:28:24.754Z,0.88
2016-11-05T09:29:33.477Z,0.92
2016-11-05T09:30:42.201Z,0.89
2016-11-05T09:31:50.893Z,0.89
2016-11-05T09:32:59.583Z,0.91
2016-11-05T09:34:08.278Z,0.96
2016-11-05T09:35:16.967Z,0.99
2016-11-05T09:36:25.659Z,0.92
2016-11-05T09:37:34.353Z,0.95
2016-11-05T09:38:43.040Z,0.95
2016-11-05T09:39:51.729Z,1
2016-11-05T09:41:00.414Z,0.92
2016-11-05T09:42:09.101Z,0.77
2016-11-05T09:43:17.790Z,0.86
2016-11-05T09:44:26.480Z,0.89
2016-11-05T09:45:35.204Z,0.86
2016-11-05T09:46:43.906Z,0.85
2016-11-05T09:47:52.599Z,0.81
2016-11-05T09:49:01.318Z,0.74
2016-11-05T09:50:10.005Z,0.78
2016-11-05T09:51:18.692Z,0.81
2016-11-05T09:52:27.385Z,0.78
2016-11-05T09:53:36.275Z,0.74
2016-11-05T09:54:45.002Z,0.73
2016-11-05T09:55:53.692Z,0.74
2016-11-05T09:57:02.377Z,0.68
2016-11-05T09:58:11.067Z,0.73
2016-11-05T09:59:19.804Z,0.74
2016-11-05T10:00:28.497Z,0.68
2016-11-05T10:01:37.194Z,0.74
2016-11-05T10:02:45.883Z,0.77
2016-11-05T10:03:54.571Z,0.85
2016-11-05T10:05:03.257Z,0.94
2016-11-05T10:06:12.270Z,0.85
2016-11-05T10:07:20.996Z,0.88
2016-11-05T10:08:29.728Z,0.94
2016-11-05T10:09:38.420Z,0.96
2016-11-05T10:10:47.106Z,1
2016-11-05T10:11:55.797Z,1
2016-11-05T10:13:04.485Z,1.03
2016-11-05T10:14:13.240Z,1.02
2016-11-05T10:15:21.927Z,1.03
2016-11-05T10:16:30.627Z,1.09
2016-11-05T10:17:39.318Z,1.1
2016-11-05T10:18:48.006Z,1.1
2016-11-05T10:19:56.717Z,1.12
2016-11-05T10:21:05.403Z,1.06
2016-11-05T10:22:14.090Z,1.09
2016-11-05T10:23:22.783Z,1.13
2016-11-05T10:24:31.477Z,1.04
2016-11-05T10:25:40.172Z,1.07
2016-11-05T10:26:48.861Z,1.04
2016-11-05T10:27:57.551Z,1.09
2016-11-05T10:29:06.242Z,1.13
2016-11-05T10:30:14.946Z,1.06
2016-11-05T10:31:23.637Z,1.04
2016-11-05T10:32:32.325Z,1.09
2016-11-05T10:33:41.156Z,1.14
2016-11-05T10:34:49.843Z,1.22
2016-11-05T10:35:58.533Z,1.2
2016-11-05T10:37:07.242Z,1.13
2016-11-05T10:38:15.932Z,1.22
2016-11-05T10:39:24.618Z,1.22
2016-11-05T10:40:33.313Z,1.22
2016-11-05T10:41:42.004Z,1.2
2016-11-05T10:42:50.690Z,1.21
2016-11-05T10:43:59.380Z,1.21
2016-11-05T10:45:08.120Z,1.13
2016-11-05T10:46:16.815Z,1.16
2016-11-05T10:47:25.512Z,1.14
2016-11-05T10:48:34.203Z,1.07
2016-11-05T10:49:42.895Z,1.12
2016-11-05T10:50:51.584Z,1.09
2016-11-05T10:52:00.278Z,1.06
2016-11-05T10:53:08.999Z,1.09
2016-11-05T10:54:17.689Z,1.18
2016-11-05T10:55:26.383Z,1.2
2016-11-05T10:56:35.078Z,1.21
2016-11-05T10:57:43.767Z,1.32
2016-11-05T10:58:52.454Z,1.39
2016-11-05T11:00:01.146Z,1.4
2016-11-05T11:01:09.838Z,1.43
2016-11-05T11:02:18.528Z,1.48
2016-11-05T11:03:27.215Z,1.39
2016-11-05T11:04:35.907Z,1.42
2016-11-05T11:05:44.594Z,1.38
2016-11-05T11:06:53.318Z,1.34
2016-11-05T11:08:02.006Z,1.43
2016-11-05T11:09:10.704Z,1.5
2016-11-05T11:10:19.396Z,1.48
2016-11-05T11:11:28.091Z,1.49
2016-11-05T11:12:37.106Z,1.57
2016-11-05T11:13:45.796Z,1.53
2016-11-05T11:14:54.483Z,1.68
2016-11-05T11:16:03.171Z,1.74
2016-11-05T11:17:11.872Z,1.7
2016-11-05T11:18:20.558Z,1.61
2016-11-05T11:19:29.287Z,1.75
2016-11-05T11:20:38.016Z,1.68
2016-11-05T11:21:46.706Z,1.56
2016-11-05T11:22:55.399Z,1.58
2016-11-05T11:24:04.090Z,1.56
2016-11-05T11:25:12.781Z,1.63
2016-11-05T11:26:21.471Z,1.57
2016-11-05T11:27:30.161Z,1.6
2016-11-05T11:28:38.854Z,1.63
2016-11-05T11:29:47.544Z,1.67
2016-11-05T11:30:56.237Z,1.68
2016-11-05T11:32:04.963Z,1.75
2016-11-05T11:33:13.656Z,1.68
2016-11-05T11:34:22.345Z,1.84
2016-11-05T11:35:31.035Z,1.78
2016-11-05T11:36:39.727Z,1.75
2016-11-05T11:37:48.733Z,1.7
2016-11-05T11:38:57.426Z,1.71
2016-11-05T11:40:06.120Z,1.79
2016-11-05T11:41:14.821Z,1.71
2016-11-05T11:42:23.508Z,1.74
2016-11-05T11:43:32.206Z,1.67
2016-11-05T11:44:40.925Z,1.78
2016-11-05T11:45:49.615Z,1.58
2016-11-05T11:46:58.349Z,1.68
2016-11-05T11:48:07.072Z,1.63
2016-11-05T11:49:15.763Z,1.6
2016-11-05T11:50:24.466Z,1.6
2016-11-05T11:51:33.161Z,1.64
2016-11-05T11:52:41.849Z,1.74
2016-11-05T11:53:50.541Z,1.68
2016-11-05T11:54:59.231Z,1.74
2016-11-05T11:56:07.922Z,1.74
2016-11-05T11:57:16.617Z,1.74
2016-11-05T11:58:25.306Z,1.7
2016-11-05T11:59:33.995Z,1.58
2016-11-05T12:00:42.681Z,1.5
2016-11-05T12:01:51.369Z,1.49
2016-11-05T12:03:00.066Z,1.48
2016-11-05T12:04:08.759Z,1.45
2016-11-05T12:05:17.451Z,1.48
2016-11-05T12:06:26.143Z,1.49
2016-11-05T12:07:34.828Z,1.57
2016-11-05T12:08:43.515Z,1.5
2016-11-05T12:09:52.238Z,1.48
2016-11-05T12:11:01.289Z,1.5
2016-11-05T12:12:09.982Z,1.5
2016-11-05T12:13:18.671Z,1.48
2016-11-05T12:14:27.361Z,1.5
2016-11-05T12:15:36.045Z,1.5
2016-11-05T12:16:44.735Z,1.49
2016-11-05T12:17:53.427Z,1.43
2016-11-05T12:19:02.112Z,1.34
2016-11-05T12:20:10.803Z,1.34
2016-11-05T12:21:19.493Z,1.4
2016-11-05T12:22:28.185Z,1.3
2016-11-05T12:23:36.875Z,1.3
2016-11-05T12:24:45.564Z,1.3
2016-11-05T12:25:54.253Z,1.3
2016-11-05T12:27:02.943Z,1.31
2016-11-05T12:28:11.634Z,1.24
2016-11-05T12:29:20.323Z,1.22
2016-11-05T12:30:29.012Z,1.21
2016-11-05T12:31:37.700Z,1.24
2016-11-05T12:32:46.393Z,1.12
2016-11-05T12:33:55.120Z,1.12
2016-11-05T12:35:03.821Z,1.2
2016-11-05T12:36:12.537Z,1.24
2016-11-05T12:37:21.227Z,1.18
2016-11-05T12:38:29.918Z,1.12
2016-11-05T12:39:38.613Z,1.07
2016-11-05T12:40:47.304Z,1.14
2016-11-05T12:41:55.993Z,1.16
2016-11-05T12:43:04.686Z,1.18
2016-11-05T12:44:13.408Z,1.13
2016-11-05T12:45:22.125Z,1.16
2016-11-05T12:46:30.823Z,1.07
2016-11-05T12:47:39.517Z,1.02
2016-11-05T12:48:48.209Z,0.99
2016-11-05T12:49:56.902Z,1
2016-11-05T12:51:05.626Z,0.96
2016-11-05T12:52:14.314Z,1.07
2016-11-05T12:53:23.008Z,1.04
2016-11-05T12:54:31.709Z,1.07
2016-11-05T12:55:40.440Z,0.94
2016-11-05T12:56:49.142Z,1.03
2016-11-05T12:57:57.829Z,1.03
2016-11-05T12:59:06.853Z,0.95
2016-11-05T13:00:15.547Z,0.81
2016-11-05T13:01:24.235Z,0.88
2016-11-05T13:02:32.935Z,0.99
2016-11-05T13:03:41.647Z,0.95
2016-11-05T13:04:50.337Z,0.89
2016-11-05T13:05:59.051Z,0.88
2016-11-05T13:07:07.748Z,0.89
2016-11-05T13:08:16.450Z,0.84
2016-11-05T13:09:25.150Z,0.91
2016-11-05T13:10:33.873Z,1.02
2016-11-05T13:11:42.562Z,1.02
2016-11-05T13:12:51.248Z,1.07
2016-11-05T13:13:59.938Z,0.99
2016-11-05T13:15:08.629Z,1
2016-11-05T13:16:17.325Z,0.96
2016-11-05T13:17:26.021Z,0.92
2016-11-05T13:18:34.712Z,1
2016-11-05T13:19:43.471Z,0.99
2016-11-05T13:20:52.444Z,0.92
2016-11-05T13:22:01.391Z,0.85
2016-11-05T13:23:10.199Z,0.86
2016-11-05T13:24:19.332Z,0.86
2016-11-05T13:25:28.270Z,0.99
2016-11-05T13:26:37.092Z,0.94
2016-11-05T13:27:45.829Z,0.92
2016-11-05T13:28:54.516Z,0.94
2016-11-05T13:30:03.466Z,0.85
2016-11-05T13:31:12.836Z,0.82
2016-11-05T13:32:21.532Z,0.85
2016-11-05T13:33:30.537Z,0.82
2016-11-05T13:34:39.228Z,0.81
2016-11-05T13:35:47.918Z,0.78
2016-11-05T13:36:56.608Z,0.81
2016-11-05T13:38:05.301Z,0.78
2016-11-05T13:39:13.990Z,0.77
2016-11-05T13:40:22.683Z,0.74
2016-11-05T13:41:31.400Z,0.76
2016-11-05T13:42:40.091Z,0.63
2016-11-05T13:43:48.812Z,0.71
2016-11-05T13:44:57.498Z,0.71
2016-11-05T13:46:06.196Z,0.59
2016-11-05T13:47:14.882Z,0.64
2016-11-05T13:48:23.577Z,0.56
2016-11-05T13:49:32.268Z,0.51
2016-11-05T13:50:40.960Z,0.55
2016-11-05T13:51:49.649Z,0.51
2016-11-05T13:52:58.345Z,0.51
2016-11-05T13:54:07.038Z,0.52
2016-11-05T13:55:15.741Z,0.51
2016-11-05T13:56:24.439Z,0.55
2016-11-05T13:57:33.128Z,0.51
2016-11-05T13:58:41.853Z,0.56
2016-11-05T13:59:50.539Z,0.52
2016-11-05T14:00:59.259Z,0.61
2016-11-05T14:02:07.986Z,0.59
2016-11-05T14:03:16.677Z,0.48
2016-11-05T14:04:25.369Z,0.49
2016-11-05T14:05:34.060Z,0.51
2016-11-05T14:06:42.747Z,0.48
2016-11-05T14:07:51.429Z,0.45
2016-11-05T14:09:00.120Z,0.33
2016-11-05T14:10:08.817Z,0.29
2016-11-05T14:11:17.509Z,0.31
2016-11-05T14:12:26.200Z,0.27
2016-11-05T14:13:34.890Z,0.33
2016-11-05T14:14:43.583Z,0.24
2016-11-05T14:15:52.275Z,0.26
2016-11-05T14:17:00.968Z,0.29
2016-11-05T14:18:09.655Z,0.18
2016-11-05T14:19:18.351Z,0.23
2016-11-05T14:20:27.041Z,0.16
2016-11-05T14:21:35.727Z,0.18
2016-11-05T14:22:44.413Z,0.12
2016-11-05T14:23:53.138Z,0.06
2016-11-05T14:25:01.823Z,0.06
2016-11-05T14:26:10.519Z,0.11
2016-11-05T14:27:19.211Z,0.08
2016-11-05T14:28:27.901Z,0.11
2016-11-05T14:29:36.590Z,0.11
2016-11-05T14:30:45.275Z,0.01
2016-11-05T14:31:53.968Z,0
2016-11-05T14:33:02.688Z,0.06
2016-11-05T14:34:11.381Z,0.08
2016-11-05T14:35:20.072Z,0.11
2016-11-05T14:36:28.761Z,0.08
2016-11-05T14:37:37.462Z,0.09
2016-11-05T14:38:46.212Z,0.08
2016-11-05T14:39:54.897Z,0.09
2016-11-05T14:41:03.584Z,0.11
2016-11-05T14:42:12.273Z,0.05
2016-11-05T14:43:20.966Z,0.11
2016-11-05T14:44:29.654Z,-0.02
2016-11-05T14:45:38.343Z,-0.05
2016-11-05T14:46:47.037Z,0.09
2016-11-05T14:47:55.723Z,0
2016-11-05T14:49:04.410Z,-0.03
2016-11-05T14:50:13.099Z,0.05
2016-11-05T14:51:21.788Z,0.01
2016-11-05T14:52:30.481Z,-0.09
2016-11-05T14:53:39.526Z,-0.06
2016-11-05T14:54:48.539Z,-0.07
2016-11-05T14:55:57.246Z,-0.07
2016-11-05T14:57:05.937Z,-0.09
2016-11-05T14:58:14.630Z,-0.12
2016-11-05T14:59:23.316Z,-0.06
2016-11-05T15:00:32.015Z,-0.07
2016-11-05T15:01:40.800Z,-0.05
2016-11-05T15:02:49.499Z,-0.18
2016-11-05T15:03:58.195Z,-0.09